< < Back
Terminal Aerodrome Forecast


Current Version              Previous Versions:   1  2  3  4  5  6  7  8  9  

Terminal Aerodrome Forecast

898
FTUS44 KBMX 072340
TAFBHM
TAF
KBHM 072340Z 0800/0824 28008KT P6SM SCT250
     FM080400 24005KT P6SM SCT150
     FM081100 25006KT P6SM BKN050 BKN130
     FM081500 28013G23KT P6SM BKN050=

Latest METAR

983
SAUS70 KWBC 081200 RRA
MTRBHM
METAR KBHM 081153Z 25005KT 10SM SCT075 06/M02 A2991 RMK AO2 SLP128
T00561017 10067 20044 57005


USA.gov is the U.S. government's official web portal to all federal, state and local government web resources and services.